sensor_id;sensor_type;location;lat;lon;timestamp;temperature;humidity
48806;DHT22;34625;47.176;27.548;2023-03-01T00:01:13;21.80;60.70
48806;DHT22;34625;47.176;27.548;2023-03-01T00:03:39;21.90;60.80
48806;DHT22;34625;47.176;27.548;2023-03-01T00:06:06;21.80;60.70
48806;DHT22;34625;47.176;27.548;2023-03-01T00:08:32;21.90;60.70
48806;DHT22;34625;47.176;27.548;2023-03-01T00:11:08;21.70;60.50
48806;DHT22;34625;47.176;27.548;2023-03-01T00:13:36;21.80;60.60
48806;DHT22;34625;47.176;27.548;2023-03-01T00:16:13;21.80;60.70
48806;DHT22;34625;47.176;27.548;2023-03-01T00:18:40;21.70;60.70
48806;DHT22;34625;47.176;27.548;2023-03-01T00:21:06;21.80;60.90
48806;DHT22;34625;47.176;27.548;2023-03-01T00:23:34;21.70;60.80
48806;DHT22;34625;47.176;27.548;2023-03-01T00:26:01;21.60;60.80
48806;DHT22;34625;47.176;27.548;2023-03-01T00:28:27;21.70;60.80
48806;DHT22;34625;47.176;27.548;2023-03-01T00:30:53;21.60;60.90
48806;DHT22;34625;47.176;27.548;2023-03-01T00:33:19;21.60;61.00
48806;DHT22;34625;47.176;27.548;2023-03-01T00:35:45;21.50;61.20
48806;DHT22;34625;47.176;27.548;2023-03-01T00:38:11;21.50;61.20
48806;DHT22;34625;47.176;27.548;2023-03-01T00:40:37;21.50;61.30
48806;DHT22;34625;47.176;27.548;2023-03-01T00:43:03;21.50;61.50
48806;DHT22;34625;47.176;27.548;2023-03-01T00:45:29;21.50;61.50
48806;DHT22;34625;47.176;27.548;2023-03-01T00:47:58;21.60;61.50
48806;DHT22;34625;47.176;27.548;2023-03-01T00:50:24;21.40;61.40
48806;DHT22;34625;47.176;27.548;2023-03-01T00:52:54;21.40;61.30
48806;DHT22;34625;47.176;27.548;2023-03-01T00:55:21;21.50;61.50
48806;DHT22;34625;47.176;27.548;2023-03-01T00:57:47;21.50;61.30
48806;DHT22;34625;47.176;27.548;2023-03-01T01:00:14;21.40;61.30
48806;DHT22;34625;47.176;27.548;2023-03-01T01:02:40;21.60;61.30
48806;DHT22;34625;47.176;27.548;2023-03-01T01:05:06;21.40;61.10
48806;DHT22;34625;47.176;27.548;2023-03-01T01:07:32;21.40;61.00
48806;DHT22;34625;47.176;27.548;2023-03-01T01:09:58;21.60;61.10
48806;DHT22;34625;47.176;27.548;2023-03-01T01:12:25;21.50;61.10
48806;DHT22;34625;47.176;27.548;2023-03-01T01:14:50;21.50;61.10
48806;DHT22;34625;47.176;27.548;2023-03-01T01:17:16;21.40;61.10
48806;DHT22;34625;47.176;27.548;2023-03-01T01:19:43;21.40;61.20
48806;DHT22;34625;47.176;27.548;2023-03-01T01:22:09;21.30;61.10
48806;DHT22;34625;47.176;27.548;2023-03-01T01:24:35;21.20;61.10
48806;DHT22;34625;47.176;27.548;2023-03-01T01:27:01;21.30;61.30
48806;DHT22;34625;47.176;27.548;2023-03-01T01:29:27;21.20;61.20
48806;DHT22;34625;47.176;27.548;2023-03-01T01:31:53;21.20;61.20
48806;DHT22;34625;47.176;27.548;2023-03-01T01:34:21;21.30;61.40
48806;DHT22;34625;47.176;27.548;2023-03-01T01:36:49;21.20;61.20
48806;DHT22;34625;47.176;27.548;2023-03-01T01:39:15;21.10;61.20
48806;DHT22;34625;47.176;27.548;2023-03-01T01:41:42;21.10;61.30
48806;DHT22;34625;47.176;27.548;2023-03-01T01:44:28;21.00;61.30
48806;DHT22;34625;47.176;27.548;2023-03-01T01:47:06;21.20;61.50
48806;DHT22;34625;47.176;27.548;2023-03-01T01:52:17;21.20;61.20
48806;DHT22;34625;47.176;27.548;2023-03-01T01:55:04;21.20;61.20
48806;DHT22;34625;47.176;27.548;2023-03-01T01:57:46;21.20;61.10
48806;DHT22;34625;47.176;27.548;2023-03-01T02:02:39;21.20;61.00
48806;DHT22;34625;47.176;27.548;2023-03-01T02:05:14;21.20;60.90
48806;DHT22;34625;47.176;27.548;2023-03-01T02:07:42;21.20;60.80
48806;DHT22;34625;47.176;27.548;2023-03-01T02:10:09;21.20;60.70
48806;DHT22;34625;47.176;27.548;2023-03-01T02:12:36;21.20;60.70
48806;DHT22;34625;47.176;27.548;2023-03-01T02:15:03;21.10;60.70
48806;DHT22;34625;47.176;27.548;2023-03-01T02:17:30;21.20;61.10
48806;DHT22;34625;47.176;27.548;2023-03-01T02:22:43;21.00;61.20
48806;DHT22;34625;47.176;27.548;2023-03-01T02:30:50;20.90;61.50
48806;DHT22;34625;47.176;27.548;2023-03-01T02:33:38;20.90;61.60
48806;DHT22;34625;47.176;27.548;2023-03-01T02:36:08;20.90;61.70
48806;DHT22;34625;47.176;27.548;2023-03-01T02:38:35;21.00;62.00
48806;DHT22;34625;47.176;27.548;2023-03-01T02:41:03;20.80;61.90
48806;DHT22;34625;47.176;27.548;2023-03-01T02:43:32;20.70;61.90
48806;DHT22;34625;47.176;27.548;2023-03-01T02:46:03;20.90;61.90
48806;DHT22;34625;47.176;27.548;2023-03-01T02:48:42;20.70;61.80
48806;DHT22;34625;47.176;27.548;2023-03-01T02:51:31;20.70;61.80
48806;DHT22;34625;47.176;27.548;2023-03-01T02:54:34;20.80;61.90
48806;DHT22;34625;47.176;27.548;2023-03-01T02:57:02;20.70;61.80
48806;DHT22;34625;47.176;27.548;2023-03-01T02:59:33;20.70;61.90
48806;DHT22;34625;47.176;27.548;2023-03-01T03:02:26;20.70;61.80
48806;DHT22;34625;47.176;27.548;2023-03-01T03:05:13;20.70;61.80
48806;DHT22;34625;47.176;27.548;2023-03-01T03:07:42;20.70;61.90
48806;DHT22;34625;47.176;27.548;2023-03-01T03:10:14;20.60;61.70
48806;DHT22;34625;47.176;27.548;2023-03-01T03:12:41;20.70;61.70
48806;DHT22;34625;47.176;27.548;2023-03-01T03:15:09;20.90;61.60
48806;DHT22;34625;47.176;27.548;2023-03-01T03:17:38;20.70;61.30
48806;DHT22;34625;47.176;27.548;2023-03-01T03:20:07;20.80;61.10
48806;DHT22;34625;47.176;27.548;2023-03-01T03:22:38;20.90;61.20
48806;DHT22;34625;47.176;27.548;2023-03-01T03:25:08;20.90;61.10
48806;DHT22;34625;47.176;27.548;2023-03-01T03:27:40;20.80;60.90
48806;DHT22;34625;47.176;27.548;2023-03-01T03:30:10;21.00;60.90
48806;DHT22;34625;47.176;27.548;2023-03-01T03:32:42;20.80;60.60
48806;DHT22;34625;47.176;27.548;2023-03-01T03:35:28;21.00;60.60
48806;DHT22;34625;47.176;27.548;2023-03-01T03:37:57;21.00;60.70
48806;DHT22;34625;47.176;27.548;2023-03-01T03:40:34;21.20;60.70
48806;DHT22;34625;47.176;27.548;2023-03-01T03:43:00;21.00;60.70
48806;DHT22;34625;47.176;27.548;2023-03-01T03:45:27;21.10;60.80
48806;DHT22;34625;47.176;27.548;2023-03-01T03:47:53;21.10;60.90
48806;DHT22;34625;47.176;27.548;2023-03-01T03:50:19;21.10;60.80
48806;DHT22;34625;47.176;27.548;2023-03-01T03:52:45;21.20;60.90
48806;DHT22;34625;47.176;27.548;2023-03-01T03:55:12;21.10;60.80
48806;DHT22;34625;47.176;27.548;2023-03-01T03:57:40;21.10;60.90
48806;DHT22;34625;47.176;27.548;2023-03-01T04:00:11;21.20;61.10
48806;DHT22;34625;47.176;27.548;2023-03-01T04:02:41;21.20;61.00
48806;DHT22;34625;47.176;27.548;2023-03-01T04:05:08;21.10;60.90
48806;DHT22;34625;47.176;27.548;2023-03-01T04:07:35;21.20;61.00
48806;DHT22;34625;47.176;27.548;2023-03-01T04:10:06;21.20;61.10
48806;DHT22;34625;47.176;27.548;2023-03-01T04:12:33;21.20;61.20
48806;DHT22;34625;47.176;27.548;2023-03-01T04:15:04;21.30;61.30
48806;DHT22;34625;47.176;27.548;2023-03-01T04:17:43;21.30;61.30
48806;DHT22;34625;47.176;27.548;2023-03-01T04:20:12;21.40;61.30
48806;DHT22;34625;47.176;27.548;2023-03-01T04:22:39;21.30;61.40
48806;DHT22;34625;47.176;27.548;2023-03-01T04:25:05;21.10;61.30
48806;DHT22;34625;47.176;27.548;2023-03-01T04:27:35;21.20;61.30
48806;DHT22;34625;47.176;27.548;2023-03-01T04:30:03;21.10;61.30
48806;DHT22;34625;47.176;27.548;2023-03-01T04:32:29;21.30;61.80
48806;DHT22;34625;47.176;27.548;2023-03-01T04:34:55;21.40;61.50
48806;DHT22;34625;47.176;27.548;2023-03-01T04:37:21;21.30;61.40
48806;DHT22;34625;47.176;27.548;2023-03-01T04:39:47;21.40;61.30
48806;DHT22;34625;47.176;27.548;2023-03-01T04:42:17;21.30;61.40
48806;DHT22;34625;47.176;27.548;2023-03-01T04:44:43;21.30;61.40
48806;DHT22;34625;47.176;27.548;2023-03-01T04:47:10;21.40;61.70
48806;DHT22;34625;47.176;27.548;2023-03-01T04:49:36;21.40;61.80
48806;DHT22;34625;47.176;27.548;2023-03-01T04:52:02;21.50;61.70
48806;DHT22;34625;47.176;27.548;2023-03-01T04:54:34;21.40;62.20
48806;DHT22;34625;47.176;27.548;2023-03-01T04:57:01;21.30;62.60
48806;DHT22;34625;47.176;27.548;2023-03-01T04:59:28;21.20;62.70
48806;DHT22;34625;47.176;27.548;2023-03-01T05:01:56;21.20;63.00
48806;DHT22;34625;47.176;27.548;2023-03-01T05:04:23;21.20;63.10
48806;DHT22;34625;47.176;27.548;2023-03-01T05:06:50;21.10;63.20
48806;DHT22;34625;47.176;27.548;2023-03-01T05:09:16;21.20;63.50
48806;DHT22;34625;47.176;27.548;2023-03-01T05:11:42;21.30;63.30
48806;DHT22;34625;47.176;27.548;2023-03-01T05:14:09;21.20;63.20
48806;DHT22;34625;47.176;27.548;2023-03-01T05:16:36;21.10;63.40
48806;DHT22;34625;47.176;27.548;2023-03-01T05:19:03;21.10;63.60
48806;DHT22;34625;47.176;27.548;2023-03-01T05:21:40;21.10;63.50
48806;DHT22;34625;47.176;27.548;2023-03-01T05:24:26;21.00;63.90
48806;DHT22;34625;47.176;27.548;2023-03-01T05:26:53;21.00;63.90
48806;DHT22;34625;47.176;27.548;2023-03-01T05:29:20;21.10;64.10
48806;DHT22;34625;47.176;27.548;2023-03-01T05:31:55;20.90;64.50
48806;DHT22;34625;47.176;27.548;2023-03-01T05:34:26;20.90;63.50
48806;DHT22;34625;47.176;27.548;2023-03-01T05:36:53;20.80;63.80
48806;DHT22;34625;47.176;27.548;2023-03-01T05:39:20;20.90;64.40
48806;DHT22;34625;47.176;27.548;2023-03-01T05:41:53;20.90;64.00
48806;DHT22;34625;47.176;27.548;2023-03-01T05:44:20;20.90;64.00
48806;DHT22;34625;47.176;27.548;2023-03-01T05:46:47;20.90;64.30
48806;DHT22;34625;47.176;27.548;2023-03-01T05:49:13;20.90;64.40
48806;DHT22;34625;47.176;27.548;2023-03-01T05:51:40;20.80;64.30
48806;DHT22;34625;47.176;27.548;2023-03-01T05:54:07;20.90;64.20
48806;DHT22;34625;47.176;27.548;2023-03-01T05:56:34;20.90;64.20
48806;DHT22;34625;47.176;27.548;2023-03-01T05:59:01;20.90;64.00
48806;DHT22;34625;47.176;27.548;2023-03-01T06:01:27;21.00;63.90
48806;DHT22;34625;47.176;27.548;2023-03-01T06:03:53;20.90;64.00
48806;DHT22;34625;47.176;27.548;2023-03-01T06:06:19;20.90;63.70
48806;DHT22;34625;47.176;27.548;2023-03-01T06:08:45;21.00;63.60
48806;DHT22;34625;47.176;27.548;2023-03-01T06:11:11;21.00;63.50
48806;DHT22;34625;47.176;27.548;2023-03-01T06:13:37;21.00;63.50
48806;DHT22;34625;47.176;27.548;2023-03-01T06:16:07;21.10;63.20
48806;DHT22;34625;47.176;27.548;2023-03-01T06:18:33;21.00;63.20
48806;DHT22;34625;47.176;27.548;2023-03-01T06:20:59;21.00;63.00
48806;DHT22;34625;47.176;27.548;2023-03-01T06:23:25;21.10;63.80
48806;DHT22;34625;47.176;27.548;2023-03-01T06:25:51;21.00;63.10
48806;DHT22;34625;47.176;27.548;2023-03-01T06:28:17;21.00;64.10
48806;DHT22;34625;47.176;27.548;2023-03-01T06:30:43;20.90;63.90
48806;DHT22;34625;47.176;27.548;2023-03-01T06:33:10;21.10;61.30
48806;DHT22;34625;47.176;27.548;2023-03-01T06:35:35;21.10;56.20
48806;DHT22;34625;47.176;27.548;2023-03-01T06:38:03;21.20;51.20
48806;DHT22;34625;47.176;27.548;2023-03-01T06:40:30;21.40;50.50
48806;DHT22;34625;47.176;27.548;2023-03-01T06:42:57;21.50;50.50
48806;DHT22;34625;47.176;27.548;2023-03-01T06:45:24;21.60;50.50
48806;DHT22;34625;47.176;27.548;2023-03-01T06:47:50;21.70;52.20
48806;DHT22;34625;47.176;27.548;2023-03-01T06:50:17;21.90;51.80
48806;DHT22;34625;47.176;27.548;2023-03-01T06:52:44;21.90;52.60
48806;DHT22;34625;47.176;27.548;2023-03-01T06:55:12;22.10;50.80
48806;DHT22;34625;47.176;27.548;2023-03-01T06:57:38;22.20;48.00
48806;DHT22;34625;47.176;27.548;2023-03-01T07:00:05;22.10;48.90
48806;DHT22;34625;47.176;27.548;2023-03-01T07:02:31;22.20;50.20
48806;DHT22;34625;47.176;27.548;2023-03-01T07:04:57;22.00;45.50
48806;DHT22;34625;47.176;27.548;2023-03-01T07:07:23;22.10;48.60
48806;DHT22;34625;47.176;27.548;2023-03-01T07:09:49;22.20;49.40
48806;DHT22;34625;47.176;27.548;2023-03-01T07:12:16;22.40;61.30
48806;DHT22;34625;47.176;27.548;2023-03-01T07:14:44;22.60;61.10
48806;DHT22;34625;47.176;27.548;2023-03-01T07:17:10;22.70;58.60
48806;DHT22;34625;47.176;27.548;2023-03-01T07:19:36;22.70;55.20
48806;DHT22;34625;47.176;27.548;2023-03-01T07:22:03;22.90;53.00
48806;DHT22;34625;47.176;27.548;2023-03-01T07:24:30;23.00;51.40
48806;DHT22;34625;47.176;27.548;2023-03-01T07:26:55;22.90;51.90
48806;DHT22;34625;47.176;27.548;2023-03-01T07:29:21;23.10;52.20
48806;DHT22;34625;47.176;27.548;2023-03-01T07:31:47;23.10;55.60
48806;DHT22;34625;47.176;27.548;2023-03-01T07:34:13;23.10;57.30
48806;DHT22;34625;47.176;27.548;2023-03-01T07:36:39;23.20;57.50
48806;DHT22;34625;47.176;27.548;2023-03-01T07:39:10;23.10;55.90
48806;DHT22;34625;47.176;27.548;2023-03-01T07:41:36;23.30;52.10
48806;DHT22;34625;47.176;27.548;2023-03-01T07:44:02;23.10;50.20
48806;DHT22;34625;47.176;27.548;2023-03-01T07:46:28;23.20;50.20
48806;DHT22;34625;47.176;27.548;2023-03-01T07:48:54;23.10;51.90
48806;DHT22;34625;47.176;27.548;2023-03-01T07:51:20;23.20;52.00
48806;DHT22;34625;47.176;27.548;2023-03-01T07:53:47;22.90;52.60
48806;DHT22;34625;47.176;27.548;2023-03-01T07:56:15;22.90;53.40
48806;DHT22;34625;47.176;27.548;2023-03-01T07:58:44;22.80;53.50
48806;DHT22;34625;47.176;27.548;2023-03-01T08:01:12;22.70;54.00
48806;DHT22;34625;47.176;27.548;2023-03-01T08:03:39;22.60;54.50
48806;DHT22;34625;47.176;27.548;2023-03-01T08:06:07;22.40;54.70
48806;DHT22;34625;47.176;27.548;2023-03-01T08:08:33;22.40;57.20
48806;DHT22;34625;47.176;27.548;2023-03-01T08:11:00;22.30;57.90
48806;DHT22;34625;47.176;27.548;2023-03-01T08:13:27;22.30;57.70
48806;DHT22;34625;47.176;27.548;2023-03-01T08:15:53;22.30;57.60
48806;DHT22;34625;47.176;27.548;2023-03-01T08:18:20;22.30;57.70
48806;DHT22;34625;47.176;27.548;2023-03-01T08:20:47;22.30;58.70
48806;DHT22;34625;47.176;27.548;2023-03-01T08:23:13;22.10;58.20
48806;DHT22;34625;47.176;27.548;2023-03-01T08:25:39;22.30;58.20
48806;DHT22;34625;47.176;27.548;2023-03-01T08:28:05;22.20;57.70
48806;DHT22;34625;47.176;27.548;2023-03-01T08:30:32;22.20;57.80
48806;DHT22;34625;47.176;27.548;2023-03-01T08:32:58;22.20;58.10
48806;DHT22;34625;47.176;27.548;2023-03-01T08:35:24;22.00;58.00
48806;DHT22;34625;47.176;27.548;2023-03-01T08:37:49;22.20;58.00
48806;DHT22;34625;47.176;27.548;2023-03-01T08:40:16;22.10;58.10
48806;DHT22;34625;47.176;27.548;2023-03-01T08:42:42;22.20;58.40
48806;DHT22;34625;47.176;27.548;2023-03-01T08:45:10;22.10;58.30
48806;DHT22;34625;47.176;27.548;2023-03-01T08:47:36;22.00;58.60
48806;DHT22;34625;47.176;27.548;2023-03-01T08:50:04;22.10;58.90
48806;DHT22;34625;47.176;27.548;2023-03-01T08:52:32;22.10;58.50
48806;DHT22;34625;47.176;27.548;2023-03-01T08:54:58;22.10;58.70
48806;DHT22;34625;47.176;27.548;2023-03-01T08:57:27;22.10;58.90
48806;DHT22;34625;47.176;27.548;2023-03-01T08:59:52;22.10;58.90
48806;DHT22;34625;47.176;27.548;2023-03-01T09:02:22;22.20;59.40
48806;DHT22;34625;47.176;27.548;2023-03-01T09:04:48;22.30;59.10
48806;DHT22;34625;47.176;27.548;2023-03-01T09:07:14;22.30;58.90
48806;DHT22;34625;47.176;27.548;2023-03-01T09:09:40;22.30;59.00
48806;DHT22;34625;47.176;27.548;2023-03-01T09:12:06;22.20;59.50
48806;DHT22;34625;47.176;27.548;2023-03-01T09:14:32;22.20;59.80
48806;DHT22;34625;47.176;27.548;2023-03-01T09:16:58;22.30;52.40
48806;DHT22;34625;47.176;27.548;2023-03-01T09:19:24;22.60;54.20
48806;DHT22;34625;47.176;27.548;2023-03-01T09:21:50;22.80;42.80
48806;DHT22;34625;47.176;27.548;2023-03-01T09:24:23;22.90;43.10
48806;DHT22;34625;47.176;27.548;2023-03-01T09:26:51;22.90;44.10
48806;DHT22;34625;47.176;27.548;2023-03-01T09:29:18;23.00;55.00
48806;DHT22;34625;47.176;27.548;2023-03-01T09:31:44;22.90;56.00
48806;DHT22;34625;47.176;27.548;2023-03-01T09:34:10;22.90;57.20
48806;DHT22;34625;47.176;27.548;2023-03-01T09:36:37;22.90;57.80
48806;DHT22;34625;47.176;27.548;2023-03-01T09:39:03;23.00;58.20
48806;DHT22;34625;47.176;27.548;2023-03-01T09:41:50;22.90;57.70
48806;DHT22;34625;47.176;27.548;2023-03-01T09:47:01;22.80;58.80
48806;DHT22;34625;47.176;27.548;2023-03-01T09:49:39;22.90;58.90
48806;DHT22;34625;47.176;27.548;2023-03-01T09:52:29;23.00;58.00
48806;DHT22;34625;47.176;27.548;2023-03-01T09:54:58;22.90;58.40
48806;DHT22;34625;47.176;27.548;2023-03-01T10:05:48;23.00;58.90
48806;DHT22;34625;47.176;27.548;2023-03-01T10:11:03;23.00;59.20
48806;DHT22;34625;47.176;27.548;2023-03-01T10:16:16;23.00;59.40
48806;DHT22;34625;47.176;27.548;2023-03-01T10:18:43;22.90;59.60
48806;DHT22;34625;47.176;27.548;2023-03-01T10:21:17;23.00;59.10
48806;DHT22;34625;47.176;27.548;2023-03-01T10:23:43;23.00;59.00
48806;DHT22;34625;47.176;27.548;2023-03-01T10:28:58;23.00;58.70
48806;DHT22;34625;47.176;27.548;2023-03-01T10:31:46;22.90;58.90
48806;DHT22;34625;47.176;27.548;2023-03-01T10:34:19;22.90;58.90
48806;DHT22;34625;47.176;27.548;2023-03-01T10:36:50;22.90;58.70
48806;DHT22;34625;47.176;27.548;2023-03-01T10:39:19;22.90;58.90
48806;DHT22;34625;47.176;27.548;2023-03-01T10:48:26;22.70;52.20
48806;DHT22;34625;47.176;27.548;2023-03-01T10:53:34;23.00;55.80
48806;DHT22;34625;47.176;27.548;2023-03-01T10:56:11;23.20;55.10
48806;DHT22;34625;47.176;27.548;2023-03-01T10:59:02;23.30;52.40
48806;DHT22;34625;47.176;27.548;2023-03-01T11:01:33;23.20;49.20
48806;DHT22;34625;47.176;27.548;2023-03-01T11:06:33;23.30;52.50
48806;DHT22;34625;47.176;27.548;2023-03-01T11:09:18;23.20;56.80
48806;DHT22;34625;47.176;27.548;2023-03-01T11:11:45;23.20;47.60
48806;DHT22;34625;47.176;27.548;2023-03-01T11:14:22;23.30;44.80
48806;DHT22;34625;47.176;27.548;2023-03-01T11:17:01;23.70;55.20
48806;DHT22;34625;47.176;27.548;2023-03-01T11:19:28;23.80;48.30
48806;DHT22;34625;47.176;27.548;2023-03-01T11:27:32;23.90;40.50
48806;DHT22;34625;47.176;27.548;2023-03-01T11:32:40;23.70;47.80
48806;DHT22;34625;47.176;27.548;2023-03-01T11:35:16;23.80;53.90
48806;DHT22;34625;47.176;27.548;2023-03-01T11:37:45;23.70;55.10
48806;DHT22;34625;47.176;27.548;2023-03-01T11:40:24;23.60;56.40
48806;DHT22;34625;47.176;27.548;2023-03-01T11:45:17;23.50;57.50
48806;DHT22;34625;47.176;27.548;2023-03-01T11:50:39;23.40;58.40
48806;DHT22;34625;47.176;27.548;2023-03-01T11:53:29;23.50;58.50
48806;DHT22;34625;47.176;27.548;2023-03-01T12:01:33;23.20;59.80
48806;DHT22;34625;47.176;27.548;2023-03-01T12:34:21;22.90;61.40
48806;DHT22;34625;47.176;27.548;2023-03-01T12:50:29;22.60;62.30
48806;DHT22;34625;47.176;27.548;2023-03-01T12:53:01;22.60;61.70
48806;DHT22;34625;47.176;27.548;2023-03-01T12:55:34;22.60;61.60
48806;DHT22;34625;47.176;27.548;2023-03-01T13:04:06;22.70;61.00
48806;DHT22;34625;47.176;27.548;2023-03-01T13:17:58;22.70;61.80
48806;DHT22;34625;47.176;27.548;2023-03-01T13:20:34;22.50;61.60
48806;DHT22;34625;47.176;27.548;2023-03-01T13:28:41;22.50;61.10
48806;DHT22;34625;47.176;27.548;2023-03-01T13:33:48;22.50;61.30
48806;DHT22;34625;47.176;27.548;2023-03-01T13:38:58;22.60;61.00
48806;DHT22;34625;47.176;27.548;2023-03-01T13:44:33;22.50;60.60
48806;DHT22;34625;47.176;27.548;2023-03-01T13:49:57;22.50;60.40
48806;DHT22;34625;47.176;27.548;2023-03-01T13:52:43;22.50;60.30
48806;DHT22;34625;47.176;27.548;2023-03-01T13:55:19;22.40;60.40
48806;DHT22;34625;47.176;27.548;2023-03-01T13:57:49;22.40;60.70
48806;DHT22;34625;47.176;27.548;2023-03-01T14:03:10;22.50;60.40
48806;DHT22;34625;47.176;27.548;2023-03-01T14:05:36;22.60;60.10
48806;DHT22;34625;47.176;27.548;2023-03-01T14:08:04;22.60;60.20
48806;DHT22;34625;47.176;27.548;2023-03-01T14:10:49;22.50;60.30
48806;DHT22;34625;47.176;27.548;2023-03-01T14:19:15;22.50;60.90
48806;DHT22;34625;47.176;27.548;2023-03-01T14:21:46;22.60;60.70
48806;DHT22;34625;47.176;27.548;2023-03-01T14:24:21;22.60;60.90
48806;DHT22;34625;47.176;27.548;2023-03-01T14:26:49;22.50;60.90
48806;DHT22;34625;47.176;27.548;2023-03-01T14:29:33;22.40;60.50
48806;DHT22;34625;47.176;27.548;2023-03-01T14:32:21;22.50;61.10
48806;DHT22;34625;47.176;27.548;2023-03-01T14:34:50;22.40;61.00
48806;DHT22;34625;47.176;27.548;2023-03-01T14:39:46;22.40;60.90
48806;DHT22;34625;47.176;27.548;2023-03-01T14:42:13;22.40;60.40
48806;DHT22;34625;47.176;27.548;2023-03-01T14:44:42;22.50;60.90
48806;DHT22;34625;47.176;27.548;2023-03-01T14:47:19;22.40;61.00
48806;DHT22;34625;47.176;27.548;2023-03-01T14:49:50;22.40;61.00
48806;DHT22;34625;47.176;27.548;2023-03-01T14:52:27;22.30;60.80
48806;DHT22;34625;47.176;27.548;2023-03-01T14:54:55;22.20;60.60
48806;DHT22;34625;47.176;27.548;2023-03-01T14:57:24;22.40;61.00
48806;DHT22;34625;47.176;27.548;2023-03-01T14:59:52;22.30;61.00
48806;DHT22;34625;47.176;27.548;2023-03-01T15:02:23;22.20;61.00
48806;DHT22;34625;47.176;27.548;2023-03-01T15:04:52;22.30;61.60
48806;DHT22;34625;47.176;27.548;2023-03-01T15:07:29;22.30;61.50
48806;DHT22;34625;47.176;27.548;2023-03-01T15:09:56;22.20;61.70
48806;DHT22;34625;47.176;27.548;2023-03-01T15:14:55;22.10;61.90
48806;DHT22;34625;47.176;27.548;2023-03-01T15:17:33;22.40;62.00
48806;DHT22;34625;47.176;27.548;2023-03-01T15:20:03;22.30;61.70
48806;DHT22;34625;47.176;27.548;2023-03-01T15:22:30;22.20;61.70
48806;DHT22;34625;47.176;27.548;2023-03-01T15:24:56;22.10;62.50
48806;DHT22;34625;47.176;27.548;2023-03-01T15:27:24;22.20;62.30
48806;DHT22;34625;47.176;27.548;2023-03-01T15:29:59;22.10;62.00
48806;DHT22;34625;47.176;27.548;2023-03-01T15:35:00;22.20;61.20
48806;DHT22;34625;47.176;27.548;2023-03-01T15:37:47;22.00;61.10
48806;DHT22;34625;47.176;27.548;2023-03-01T15:43:08;21.90;61.10
48806;DHT22;34625;47.176;27.548;2023-03-01T15:46:01;21.70;61.40
48806;DHT22;34625;47.176;27.548;2023-03-01T15:48:27;21.80;62.80
48806;DHT22;34625;47.176;27.548;2023-03-01T15:50:58;21.60;62.50
48806;DHT22;34625;47.176;27.548;2023-03-01T15:53:26;21.70;64.10
48806;DHT22;34625;47.176;27.548;2023-03-01T15:55:53;21.70;70.00
48806;DHT22;34625;47.176;27.548;2023-03-01T15:58:21;21.70;60.60
48806;DHT22;34625;47.176;27.548;2023-03-01T16:00:48;22.00;62.10
48806;DHT22;34625;47.176;27.548;2023-03-01T16:03:17;22.50;59.00
48806;DHT22;34625;47.176;27.548;2023-03-01T16:05:48;22.50;56.30
48806;DHT22;34625;47.176;27.548;2023-03-01T16:08:14;22.70;54.10
48806;DHT22;34625;47.176;27.548;2023-03-01T16:10:41;22.80;51.90
48806;DHT22;34625;47.176;27.548;2023-03-01T16:13:11;22.80;49.30
48806;DHT22;34625;47.176;27.548;2023-03-01T16:15:37;22.80;46.50
48806;DHT22;34625;47.176;27.548;2023-03-01T16:18:05;22.80;44.00
48806;DHT22;34625;47.176;27.548;2023-03-01T16:20:32;22.70;43.30
48806;DHT22;34625;47.176;27.548;2023-03-01T16:22:59;22.70;42.90
48806;DHT22;34625;47.176;27.548;2023-03-01T16:25:29;22.80;56.60
48806;DHT22;34625;47.176;27.548;2023-03-01T16:27:55;22.60;58.40
48806;DHT22;34625;47.176;27.548;2023-03-01T16:30:22;22.60;59.30
48806;DHT22;34625;47.176;27.548;2023-03-01T16:32:49;22.50;60.60
48806;DHT22;34625;47.176;27.548;2023-03-01T16:35:18;22.50;61.70
48806;DHT22;34625;47.176;27.548;2023-03-01T16:37:46;22.50;61.40
48806;DHT22;34625;47.176;27.548;2023-03-01T16:40:19;22.70;61.00
48806;DHT22;34625;47.176;27.548;2023-03-01T16:42:47;22.80;60.30
48806;DHT22;34625;47.176;27.548;2023-03-01T16:45:14;22.80;59.70
48806;DHT22;34625;47.176;27.548;2023-03-01T16:47:39;22.90;59.30
48806;DHT22;34625;47.176;27.548;2023-03-01T16:50:06;22.90;59.10
48806;DHT22;34625;47.176;27.548;2023-03-01T16:52:33;22.80;59.40
48806;DHT22;34625;47.176;27.548;2023-03-01T16:54:59;22.60;57.60
48806;DHT22;34625;47.176;27.548;2023-03-01T16:57:25;22.60;47.40
48806;DHT22;34625;47.176;27.548;2023-03-01T16:59:54;22.80;49.90
48806;DHT22;34625;47.176;27.548;2023-03-01T17:02:20;22.90;48.30
48806;DHT22;34625;47.176;27.548;2023-03-01T17:04:54;23.10;45.00
48806;DHT22;34625;47.176;27.548;2023-03-01T17:07:20;23.20;42.80
48806;DHT22;34625;47.176;27.548;2023-03-01T17:09:46;23.10;42.90
48806;DHT22;34625;47.176;27.548;2023-03-01T17:12:13;23.10;42.20
48806;DHT22;34625;47.176;27.548;2023-03-01T17:14:40;23.20;52.60
48806;DHT22;34625;47.176;27.548;2023-03-01T17:17:08;23.10;54.60
48806;DHT22;34625;47.176;27.548;2023-03-01T17:19:34;22.90;56.10
48806;DHT22;34625;47.176;27.548;2023-03-01T17:22:02;22.90;57.10
48806;DHT22;34625;47.176;27.548;2023-03-01T17:24:31;22.90;57.90
48806;DHT22;34625;47.176;27.548;2023-03-01T17:26:57;22.60;58.20
48806;DHT22;34625;47.176;27.548;2023-03-01T17:29:23;22.70;58.00
48806;DHT22;34625;47.176;27.548;2023-03-01T17:31:49;22.50;57.70
48806;DHT22;34625;47.176;27.548;2023-03-01T17:34:15;22.40;57.60
48806;DHT22;34625;47.176;27.548;2023-03-01T17:36:41;22.40;57.60
48806;DHT22;34625;47.176;27.548;2023-03-01T17:39:09;22.40;57.50
48806;DHT22;34625;47.176;27.548;2023-03-01T17:41:35;22.30;57.30
48806;DHT22;34625;47.176;27.548;2023-03-01T17:44:01;22.30;57.40
48806;DHT22;34625;47.176;27.548;2023-03-01T17:46:28;22.30;57.30
48806;DHT22;34625;47.176;27.548;2023-03-01T17:48:54;22.20;57.20
48806;DHT22;34625;47.176;27.548;2023-03-01T17:51:20;22.20;56.90
48806;DHT22;34625;47.176;27.548;2023-03-01T17:53:45;22.20;57.10
48806;DHT22;34625;47.176;27.548;2023-03-01T17:56:11;22.40;56.70
48806;DHT22;34625;47.176;27.548;2023-03-01T17:58:37;22.50;56.10
48806;DHT22;34625;47.176;27.548;2023-03-01T18:01:13;22.50;55.60
48806;DHT22;34625;47.176;27.548;2023-03-01T18:03:40;22.60;56.50
48806;DHT22;34625;47.176;27.548;2023-03-01T18:06:17;22.60;58.90
48806;DHT22;34625;47.176;27.548;2023-03-01T18:08:44;22.60;62.40